createdAt,value
2022-11-26T00:05:54.086Z,6.30
2022-11-26T00:08:33.822Z,6.20
2022-11-26T00:11:01.733Z,6.30
2022-11-26T00:13:31.249Z,6.20
2022-11-26T00:20:56.748Z,6.30
2022-11-26T00:23:26.393Z,6.30
2022-11-26T00:25:58.353Z,6.20
2022-11-26T00:28:34.277Z,6.20
2022-11-26T00:31:03.985Z,6.20
2022-11-26T00:33:31.777Z,6.20
2022-11-26T00:36:31.783Z,6.20
2022-11-26T00:39:32.168Z,6.10
2022-11-26T00:54:18.317Z,6.20
2022-11-26T00:56:46.253Z,6.20
2022-11-26T00:59:15.013Z,6.20
2022-11-26T01:06:40.548Z,6.10
2022-11-26T01:09:12.152Z,6.00
2022-11-26T01:14:07.219Z,6.10
2022-11-26T01:16:39.285Z,6.00
2022-11-26T01:26:33.233Z,6.00
2022-11-26T01:31:29.273Z,5.90
2022-11-26T01:33:57.149Z,5.90
2022-11-26T01:36:33.088Z,5.90
2022-11-26T01:39:14.239Z,5.90
2022-11-26T01:46:37.148Z,5.90
2022-11-26T01:49:18.881Z,5.80
2022-11-26T01:51:46.804Z,5.90
2022-11-26T01:54:14.493Z,5.80
2022-11-26T01:56:51.421Z,5.80
2022-11-26T01:59:33.145Z,5.80
2022-11-26T02:02:00.992Z,5.90
2022-11-26T02:05:11.400Z,5.80
2022-11-26T02:17:49.004Z,5.90
2022-11-26T02:20:52.392Z,5.90
2022-11-26T02:23:37.979Z,5.90
2022-11-26T02:26:13.642Z,5.90
2022-11-26T02:29:02.183Z,5.80
2022-11-26T02:31:51.435Z,5.80
2022-11-26T02:34:21.408Z,5.80
2022-11-26T02:37:03.930Z,5.70
2022-11-26T02:42:02.382Z,5.70
2022-11-26T02:44:33.673Z,5.70
2022-11-26T02:47:09.817Z,5.70
2022-11-26T02:49:39.705Z,5.70
2022-11-26T02:52:07.906Z,5.70
2022-11-26T02:54:36.869Z,5.70
2022-11-26T02:57:07.361Z,5.70
2022-11-26T02:59:35.043Z,5.70
2022-11-26T03:02:28.182Z,5.60
2022-11-26T03:04:59.693Z,5.50
2022-11-26T03:07:28.861Z,5.60
2022-11-26T03:09:59.255Z,5.60
2022-11-26T03:19:49.055Z,5.40
2022-11-26T03:24:43.591Z,5.40
2022-11-26T04:26:05.261Z,5.80
2022-11-26T06:11:51.571Z,6.00
2022-11-26T06:33:57.475Z,6.00
2022-11-26T06:51:11.151Z,6.00
2022-11-26T06:56:08.082Z,6.10
2022-11-26T07:01:09.526Z,6.10
2022-11-26T07:11:02.422Z,6.00
2022-11-26T08:29:36.991Z,6.50
2022-11-26T09:01:34.181Z,6.70
2022-11-26T09:04:04.998Z,6.60
2022-11-26T09:06:34.582Z,6.60
2022-11-26T09:09:14.525Z,6.80
2022-11-26T09:11:56.142Z,6.80
2022-11-26T09:14:25.118Z,6.90
2022-11-26T09:21:47.778Z,7.20
2022-11-26T09:29:14.515Z,7.40
2022-11-26T09:42:07.224Z,7.30
2022-11-26T09:45:02.844Z,7.40
2022-11-26T09:47:39.445Z,7.40
2022-11-26T09:52:46.310Z,7.40
2022-11-26T09:55:15.662Z,7.50
2022-11-26T09:58:04.249Z,7.60
2022-11-26T10:00:39.245Z,7.60
2022-11-26T10:03:18.356Z,7.60
2022-11-26T10:05:48.098Z,7.70
2022-11-26T10:08:52.414Z,7.70
2022-11-26T10:11:31.457Z,7.90
2022-11-26T10:14:10.125Z,8.00
2022-11-26T10:16:45.406Z,8.10
2022-11-26T10:19:31.670Z,8.10
2022-11-26T10:22:03.596Z,8.10
2022-11-26T10:24:38.718Z,8.10
2022-11-26T10:27:14.427Z,8.10
2022-11-26T10:29:43.405Z,8.10
2022-11-26T10:32:22.180Z,8.10
2022-11-26T10:34:52.276Z,8.10
2022-11-26T10:37:24.552Z,8.00
2022-11-26T10:40:11.567Z,7.90
2022-11-26T10:42:43.880Z,7.90
2022-11-26T10:45:20.187Z,7.90
2022-11-26T10:50:46.604Z,7.90
2022-11-26T10:58:20.832Z,7.80
2022-11-26T11:00:50.533Z,7.90
2022-11-26T11:04:06.891Z,7.90
2022-11-26T11:06:35.466Z,7.90
2022-11-26T11:09:26.048Z,7.90
2022-11-26T11:12:11.383Z,8.00
2022-11-26T11:14:43.953Z,7.90
2022-11-26T11:17:31.853Z,8.00
2022-11-26T11:24:56.385Z,8.10
2022-11-26T11:27:35.798Z,8.10
2022-11-26T11:32:38.969Z,8.10
2022-11-26T11:35:33.578Z,8.10
2022-11-26T11:40:30.607Z,8.20
2022-11-26T11:43:05.910Z,8.00
2022-11-26T11:46:03.596Z,8.10
2022-11-26T11:49:12.125Z,8.20
2022-11-26T11:51:54.789Z,8.10
2022-11-26T11:54:29.710Z,8.10
2022-11-26T11:57:16.699Z,8.10
2022-11-26T12:00:13.424Z,8.10
2022-11-26T12:05:47.682Z,8.20
2022-11-26T12:08:39.365Z,8.20
2022-11-26T12:11:33.561Z,8.30
2022-11-26T12:16:36.449Z,8.30
2022-11-26T12:19:34.499Z,8.30
2022-11-26T12:22:20.321Z,8.30
2022-11-26T12:25:06.510Z,8.30
2022-11-26T12:27:39.637Z,8.30
2022-11-26T12:30:14.857Z,8.30
2022-11-26T12:32:51.865Z,8.20
2022-11-26T12:35:38.497Z,8.20
2022-11-26T12:38:18.006Z,8.10
2022-11-26T12:40:54.549Z,8.10
2022-11-26T12:43:56.614Z,8.10
2022-11-26T12:46:51.728Z,8.00
2022-11-26T12:49:29.527Z,7.90
2022-11-26T12:52:25.494Z,7.80
2022-11-26T12:55:14.091Z,7.80
2022-11-26T12:57:45.914Z,7.80
2022-11-26T13:00:31.379Z,7.60
2022-11-26T13:03:02.286Z,7.60
2022-11-26T13:05:51.294Z,7.60
2022-11-26T13:08:43.297Z,7.60
2022-11-26T13:11:20.777Z,7.70
2022-11-26T13:13:54.103Z,7.80
2022-11-26T13:16:43.077Z,7.80
2022-11-26T13:19:42.001Z,7.50
2022-11-26T13:22:30.584Z,7.60
2022-11-26T13:25:00.666Z,7.60
2022-11-26T13:32:55.688Z,7.60
2022-11-26T13:35:48.704Z,7.60
2022-11-26T13:38:33.311Z,7.80
2022-11-26T13:41:22.100Z,7.90
2022-11-26T13:51:51.187Z,7.70
2022-11-26T13:54:32.038Z,7.70
2022-11-26T13:57:04.727Z,7.60
2022-11-26T14:09:46.576Z,7.30
2022-11-26T14:12:20.914Z,7.30
2022-11-26T14:14:49.614Z,7.20
2022-11-26T14:17:32.627Z,7.20
2022-11-26T14:22:32.472Z,7.00
2022-11-26T14:25:11.487Z,6.80
2022-11-26T14:27:53.286Z,6.90
2022-11-26T14:30:22.787Z,6.70
2022-11-26T14:33:18.706Z,6.60
2022-11-26T14:35:56.768Z,6.60
2022-11-26T14:38:26.910Z,6.70
2022-11-26T14:40:59.114Z,6.70
2022-11-26T14:46:22.562Z,6.60
2022-11-26T14:48:50.586Z,6.60
2022-11-26T14:51:23.335Z,6.60
2022-11-26T14:53:50.908Z,6.50
2022-11-26T14:56:21.132Z,6.60
2022-11-26T14:58:56.373Z,6.50
2022-11-26T15:01:29.252Z,6.50
2022-11-26T15:04:01.675Z,6.50
2022-11-26T15:06:38.213Z,6.50
2022-11-26T15:09:06.124Z,6.40
2022-11-26T15:11:36.473Z,6.50
2022-11-26T15:16:35.093Z,6.30
2022-11-26T15:19:04.396Z,6.40
2022-11-26T15:21:31.710Z,6.40
2022-11-26T15:24:01.419Z,6.40
2022-11-26T15:26:33.594Z,6.50
2022-11-26T15:31:41.215Z,6.30
2022-11-26T15:34:13.395Z,6.20
2022-11-26T15:41:42.873Z,6.10
2022-11-26T15:44:27.883Z,6.10
2022-11-26T15:46:57.241Z,6.20
2022-11-26T15:49:37.141Z,6.20
2022-11-26T15:52:12.151Z,6.30
2022-11-26T15:55:11.882Z,6.30
2022-11-26T15:57:33.462Z,6.10
2022-11-26T16:00:20.064Z,6.10
2022-11-26T16:05:24.190Z,6.10
2022-11-26T16:08:27.238Z,5.90
2022-11-26T16:11:06.630Z,6.00
2022-11-26T16:13:35.131Z,5.80
2022-11-26T16:16:04.638Z,5.80
2022-11-26T16:18:42.159Z,5.70
2022-11-26T16:21:25.388Z,5.80
2022-11-26T16:24:05.938Z,5.80
2022-11-26T16:27:02.852Z,5.70
2022-11-26T16:29:31.031Z,5.70
2022-11-26T16:34:28.700Z,5.70
2022-11-26T16:37:04.088Z,5.70
2022-11-26T16:39:40.363Z,5.70
2022-11-26T16:42:25.798Z,5.60
2022-11-26T16:47:24.715Z,5.50
2022-11-26T16:52:19.826Z,5.50
2022-11-26T16:57:17.139Z,5.40
2022-11-26T16:59:46.331Z,5.40
2022-11-26T17:02:21.782Z,5.30
2022-11-26T17:07:26.207Z,5.20
2022-11-26T17:09:54.047Z,5.10
2022-11-26T17:12:23.450Z,5.10
2022-11-26T17:17:30.118Z,5.00
2022-11-26T17:22:24.760Z,4.90
2022-11-26T17:27:21.154Z,4.90
2022-11-26T17:32:20.043Z,4.80
2022-11-26T17:37:23.893Z,4.80
2022-11-26T17:44:47.956Z,4.70
2022-11-26T17:47:32.840Z,4.70
2022-11-26T18:07:13.211Z,4.40
2022-11-26T18:12:17.958Z,4.40
2022-11-26T18:17:14.854Z,4.40
2022-11-26T18:22:15.367Z,4.40
2022-11-26T18:27:28.011Z,4.40
2022-11-26T19:07:09.797Z,4.40
2022-11-26T19:09:37.740Z,4.40
2022-11-26T19:39:16.879Z,4.60
2022-11-26T19:44:12.186Z,4.60
2022-11-26T19:46:41.384Z,4.60
2022-11-26T19:49:11.854Z,4.60
2022-11-26T19:56:34.583Z,4.60
2022-11-26T20:01:31.888Z,4.60
2022-11-26T20:04:00.754Z,4.60
2022-11-26T20:06:29.262Z,4.60
2022-11-26T20:08:58.185Z,4.60
2022-11-26T20:11:26.005Z,4.50
2022-11-26T20:16:26.148Z,4.50
2022-11-26T20:21:26.185Z,4.40
2022-11-26T20:23:55.055Z,4.40
2022-11-26T20:26:30.688Z,4.40
2022-11-26T20:29:01.417Z,4.30
2022-11-26T20:36:23.778Z,4.20
2022-11-26T20:38:55.406Z,4.20
2022-11-26T20:41:23.934Z,4.10
2022-11-26T20:43:56.692Z,4.10
2022-11-26T20:56:19.482Z,3.90
2022-11-26T21:01:25.923Z,4.00
2022-11-26T21:06:29.108Z,3.90
2022-11-26T21:09:01.713Z,3.80
2022-11-26T21:11:29.602Z,3.80
2022-11-26T21:13:58.718Z,3.80
2022-11-26T21:16:26.143Z,3.80
2022-11-26T21:18:54.672Z,3.70
2022-11-26T21:26:19.245Z,3.60
2022-11-26T21:28:51.136Z,3.60
2022-11-26T21:31:19.265Z,3.60
2022-11-26T21:36:15.841Z,3.50
2022-11-26T21:38:47.142Z,3.50
2022-11-26T21:43:44.085Z,3.40
2022-11-26T21:46:15.850Z,3.40
2022-11-26T21:51:12.692Z,3.30
2022-11-26T21:56:08.093Z,3.20
2022-11-26T22:01:22.083Z,3.10
2022-11-26T22:03:51.683Z,3.10
2022-11-26T22:06:20.538Z,3.00
2022-11-26T22:11:21.227Z,2.90
2022-11-26T22:16:17.408Z,2.90
2022-11-26T22:18:45.258Z,2.90
2022-11-26T22:21:21.117Z,3.00
2022-11-26T22:31:19.519Z,3.00
2022-11-26T22:38:42.283Z,3.00
2022-11-26T22:41:11.853Z,3.00
2022-11-26T22:46:08.239Z,3.00
2022-11-26T22:55:59.856Z,3.00
2022-11-26T22:58:27.927Z,3.10
2022-11-26T23:01:22.554Z,3.10
2022-11-26T23:03:49.980Z,3.00
2022-11-26T23:06:18.614Z,3.00
2022-11-26T23:08:46.053Z,3.00
2022-11-26T23:11:17.951Z,2.90
2022-11-26T23:13:46.570Z,2.90
2022-11-26T23:16:14.661Z,2.70
2022-11-26T23:21:12.458Z,2.70
2022-11-26T23:23:39.905Z,2.80
2022-11-26T23:26:08.618Z,2.70
2022-11-26T23:31:05.034Z,2.70
2022-11-26T23:41:01.383Z,2.70
2022-11-26T23:43:29.599Z,2.70
2022-11-26T23:46:02.239Z,2.60
